Time;durP1;ratioP1;P1;durP2;ratioP2;P2;SDS_P1;SDS_P2;PMS_P1;PMS_P2;Temp;Humidity;BMP_temperature;BMP_pressure;BME280_temperature;BME280_humidity;BME280_pressure;Samples;Min_cycle;Max_cycle;Signal;HPM_P1;HPM_P2
2022/01/31 00:00:24;;;;;;;25.42;5.70;;;3.70;99.90;;;;;;5054320;28;20396;-71
2022/01/31 00:02:50;;;;;;;30.52;5.00;;;3.70;99.90;;;;;;5037811;28;20044;-73
2022/01/31 00:05:16;;;;;;;42.47;6.40;;;3.80;99.90;;;;;;5038170;28;20106;-74
2022/01/31 00:07:42;;;;;;;38.83;5.63;;;3.80;99.90;;;;;;5038249;28;20056;-72
2022/01/31 00:10:11;;;;;;;31.05;5.93;;;3.90;99.90;;;;;;5072158;28;20388;-72
2022/01/31 00:12:57;;;;;;;32.70;5.53;;;3.90;99.90;;;;;;5038023;28;20048;-72
2022/01/31 00:15:22;;;;;;;23.70;5.10;;;3.80;99.90;;;;;;5054294;28;20139;-73
2022/01/31 00:17:48;;;;;;;34.55;5.45;;;3.90;99.90;;;;;;5038121;28;20532;-73
2022/01/31 00:20:14;;;;;;;32.33;5.63;;;3.80;99.90;;;;;;5054485;28;20131;-73
2022/01/31 00:22:40;;;;;;;30.30;5.95;;;3.80;99.90;;;;;;5072412;28;20096;-73
2022/01/31 00:25:06;;;;;;;27.38;5.38;;;3.80;99.90;;;;;;5075006;28;20109;-73
2022/01/31 00:27:32;;;;;;;28.17;5.40;;;3.70;99.90;;;;;;5057655;28;20078;-73
2022/01/31 00:29:58;;;;;;;36.55;6.55;;;3.80;99.90;;;;;;5058163;28;20048;-73
2022/01/31 00:32:23;;;;;;;32.95;7.30;;;3.80;99.90;;;;;;5058793;28;20048;-74
2022/01/31 00:34:49;;;;;;;28.90;5.95;;;3.90;99.90;;;;;;5076046;28;20480;-72
2022/01/31 00:37:15;;;;;;;29.80;5.60;;;3.90;99.90;;;;;;5057594;28;20041;-74
2022/01/31 00:39:41;;;;;;;36.00;7.03;;;4.00;99.90;;;;;;5058085;28;20047;-73
2022/01/31 00:42:07;;;;;;;30.20;6.25;;;4.00;99.90;;;;;;5058428;28;20067;-74
2022/01/31 00:44:53;;;;;;;30.93;7.00;;;4.00;99.90;;;;;;5057679;28;20127;-74
2022/01/31 00:47:31;;;;;;;32.65;6.55;;;3.90;99.90;;;;;;5044481;28;20672;-72
2022/01/31 00:50:07;;;;;;;24.27;6.57;;;4.10;99.90;;;;;;5058143;28;20123;-74
2022/01/31 00:52:34;;;;;;;30.42;7.28;;;4.10;99.90;;;;;;5058229;28;20083;-71
2022/01/31 00:55:00;;;;;;;31.50;7.07;;;4.10;99.90;;;;;;5040855;28;20161;-72
2022/01/31 00:57:26;;;;;;;33.60;7.47;;;4.20;99.90;;;;;;5075361;28;20044;-73
2022/01/31 00:59:52;;;;;;;24.92;6.20;;;4.20;99.90;;;;;;5057555;28;20047;-71
2022/01/31 01:02:22;;;;;;;26.83;6.85;;;4.20;99.90;;;;;;5057265;28;20045;-73
2022/01/31 01:04:49;;;;;;;31.92;7.43;;;4.20;99.90;;;;;;5057528;28;20056;-71
2022/01/31 01:07:15;;;;;;;32.97;7.20;;;4.20;99.90;;;;;;5057749;28;20052;-72
2022/01/31 01:09:42;;;;;;;31.33;7.82;;;4.20;99.90;;;;;;5040639;28;20087;-73
2022/01/31 01:12:09;;;;;;;32.72;8.70;;;4.20;99.90;;;;;;5041515;28;20409;-73
2022/01/31 01:14:35;;;;;;;27.23;8.00;;;4.20;99.90;;;;;;5057352;28;20044;-72
2022/01/31 01:17:01;;;;;;;26.13;7.97;;;4.30;99.90;;;;;;5057049;28;20486;-72
2022/01/31 01:19:27;;;;;;;33.33;9.68;;;4.30;99.90;;;;;;5056999;28;20052;-73
2022/01/31 01:21:52;;;;;;;25.25;7.70;;;4.30;99.90;;;;;;5057338;28;20040;-73
2022/01/31 01:24:18;;;;;;;34.58;8.63;;;4.30;99.90;;;;;;5057555;28;20143;-73
2022/01/31 01:26:44;;;;;;;29.90;8.90;;;4.30;99.90;;;;;;5040431;28;20089;-73
2022/01/31 01:29:10;;;;;;;32.88;9.48;;;4.20;99.90;;;;;;5040360;28;20055;-73
2022/01/31 01:31:36;;;;;;;36.30;12.65;;;4.20;99.90;;;;;;5074717;28;20052;-73
2022/01/31 01:34:02;;;;;;;37.72;10.65;;;4.20;99.90;;;;;;5057024;28;20591;-73
2022/01/31 01:36:28;;;;;;;27.98;10.90;;;4.20;99.90;;;;;;5038639;28;20090;-73
2022/01/31 01:38:54;;;;;;;55.05;13.75;;;4.00;99.90;;;;;;5056248;28;20087;-73
2022/01/31 01:41:20;;;;;;;44.30;12.05;;;4.00;99.90;;;;;;5056989;28;20040;-74
2022/01/31 01:43:46;;;;;;;42.78;14.95;;;3.80;99.90;;;;;;5056634;28;20041;-72
2022/01/31 01:46:11;;;;;;;41.15;13.10;;;3.60;99.90;;;;;;5074452;28;20500;-72
2022/01/31 01:48:37;;;;;;;34.65;12.13;;;3.60;99.90;;;;;;5056803;28;20392;-72
2022/01/31 01:51:03;;;;;;;45.85;13.25;;;3.60;99.90;;;;;;5039673;28;20060;-72
2022/01/31 01:53:29;;;;;;;41.17;12.52;;;3.50;99.90;;;;;;5073994;28;20534;-73
2022/01/31 01:55:55;;;;;;;34.60;12.10;;;3.50;99.90;;;;;;5039952;28;20120;-72
2022/01/31 01:58:23;;;;;;;34.92;12.30;;;3.50;99.90;;;;;;5056307;28;20442;-72
2022/01/31 02:01:02;;;;;;;40.85;12.15;;;3.50;99.90;;;;;;5056765;28;20400;-72
2022/01/31 02:03:29;;;;;;;45.45;13.10;;;3.50;99.90;;;;;;5056573;28;20449;-72
2022/01/31 02:05:56;;;;;;;41.22;13.00;;;3.50;99.90;;;;;;5055991;28;20542;-72
2022/01/31 02:08:23;;;;;;;35.47;13.53;;;3.50;99.90;;;;;;5055912;28;20040;-72
2022/01/31 02:10:50;;;;;;;42.65;12.30;;;3.50;99.90;;;;;;5052507;28;20299;-71
2022/01/31 02:13:17;;;;;;;37.65;11.93;;;3.50;99.90;;;;;;5052729;28;20492;-72
2022/01/31 02:15:44;;;;;;;;;;;3.50;99.90;;;;;;5054752;28;20077;-71
2022/01/31 02:18:10;;;;;;;36.22;12.00;;;3.50;99.90;;;;;;5052361;28;20004;-73
2022/01/31 02:20:40;;;;;;;42.42;12.20;;;3.50;99.90;;;;;;5035909;28;20052;-71
2022/01/31 02:23:09;;;;;;;29.85;9.90;;;3.50;99.90;;;;;;5035403;28;20040;-72
2022/01/31 02:25:53;;;;;;;32.92;11.27;;;3.50;99.90;;;;;;5052476;28;20044;-71
2022/01/31 02:28:22;;;;;;;33.03;11.68;;;3.40;99.90;;;;;;5052507;28;20124;-71
2022/01/31 02:30:48;;;;;;;30.95;8.65;;;3.50;99.90;;;;;;5051602;28;20503;-71
2022/01/31 02:33:14;;;;;;;34.60;11.80;;;3.40;99.90;;;;;;5052320;28;20056;-71
2022/01/31 02:35:40;;;;;;;37.83;12.80;;;3.40;99.90;;;;;;5052975;28;20343;-70
2022/01/31 02:38:06;;;;;;;30.55;11.20;;;3.40;99.90;;;;;;5053022;28;20131;-73
2022/01/31 02:40:32;;;;;;;32.13;12.05;;;3.40;99.90;;;;;;5019328;28;20049;-72
2022/01/31 02:42:58;;;;;;;27.95;9.93;;;3.40;99.90;;;;;;5035357;28;20052;-72
2022/01/31 02:45:24;;;;;;;29.92;9.98;;;3.40;99.90;;;;;;5053228;28;20493;-71
2022/01/31 02:47:54;;;;;;;30.50;11.75;;;3.30;99.90;;;;;;5051500;28;20453;-70
2022/01/31 02:50:21;;;;;;;22.33;8.73;;;3.30;99.90;;;;;;5052832;28;20048;-70
2022/01/31 02:52:49;;;;;;;18.05;7.10;;;3.40;99.90;;;;;;5034652;28;20056;-69
2022/01/31 02:55:17;;;;;;;27.48;9.13;;;3.30;99.90;;;;;;5052627;28;20095;-70
2022/01/31 02:57:43;;;;;;;21.65;9.05;;;3.20;99.90;;;;;;5052707;28;20041;-70
2022/01/31 03:00:10;;;;;;;24.00;8.52;;;3.20;99.90;;;;;;5034886;28;20070;-69
2022/01/31 03:02:37;;;;;;;26.85;10.82;;;3.20;99.90;;;;;;5052768;28;20500;-73
2022/01/31 03:05:03;;;;;;;24.13;9.07;;;3.20;99.90;;;;;;5052617;28;20048;-70
2022/01/31 03:07:30;;;;;;;26.67;9.90;;;3.20;99.90;;;;;;5052684;28;20369;-71
2022/01/31 03:09:56;;;;;;;29.13;9.55;;;3.10;99.90;;;;;;5050926;28;20135;-69
2022/01/31 03:12:22;;;;;;;25.83;10.13;;;3.20;99.90;;;;;;5052448;28;20103;-72
2022/01/31 03:14:48;;;;;;;26.67;9.93;;;3.20;99.90;;;;;;5051091;28;20053;-71
2022/01/31 03:17:14;;;;;;;27.80;10.00;;;3.20;99.90;;;;;;5052483;28;20052;-71
2022/01/31 03:19:42;;;;;;;25.67;9.40;;;3.20;99.90;;;;;;5051924;28;20041;-71
2022/01/31 03:22:08;;;;;;;25.08;9.23;;;3.30;99.90;;;;;;5051458;28;20052;-72
2022/01/31 03:24:35;;;;;;;29.02;10.75;;;3.30;99.90;;;;;;5051086;28;20044;-70
2022/01/31 03:27:01;;;;;;;17.67;8.13;;;3.30;99.90;;;;;;5051075;28;20049;-72
2022/01/31 03:29:27;;;;;;;29.00;10.50;;;3.30;99.90;;;;;;5051011;28;20044;-71
2022/01/31 03:31:53;;;;;;;25.08;10.10;;;3.40;99.90;;;;;;5051705;28;20373;-71
2022/01/31 03:34:19;;;;;;;21.38;9.77;;;3.50;99.90;;;;;;5052328;28;20060;-71
2022/01/31 03:36:45;;;;;;;23.05;6.88;;;3.50;99.90;;;;;;5052668;28;20483;-70
2022/01/31 03:39:11;;;;;;;20.85;7.45;;;3.60;99.90;;;;;;5052116;28;20064;-71
2022/01/31 03:41:37;;;;;;;27.70;8.80;;;3.70;99.90;;;;;;5051611;28;20041;-71
2022/01/31 03:44:03;;;;;;;22.85;8.23;;;3.90;99.90;;;;;;5052285;28;20488;-69
2022/01/31 03:46:30;;;;;;;28.35;9.00;;;4.00;99.90;;;;;;5034505;28;20073;-69
2022/01/31 03:48:56;;;;;;;27.73;7.22;;;4.10;99.90;;;;;;5050939;28;20060;-69
2022/01/31 03:51:22;;;;;;;21.33;6.80;;;4.20;99.90;;;;;;5050902;28;20457;-71
2022/01/31 03:53:48;;;;;;;30.85;7.53;;;4.30;99.90;;;;;;5052245;28;20087;-69
2022/01/31 03:56:14;;;;;;;24.80;7.57;;;4.20;99.90;;;;;;5052407;28;20416;-71
2022/01/31 03:58:40;;;;;;;20.02;5.80;;;4.30;99.90;;;;;;5052442;28;20091;-69
2022/01/31 04:01:06;;;;;;;28.77;6.45;;;4.20;99.90;;;;;;5055036;28;20076;-71
2022/01/31 04:03:32;;;;;;;29.92;5.88;;;4.30;99.90;;;;;;5056605;28;20131;-69
2022/01/31 04:05:58;;;;;;;35.22;5.05;;;4.40;99.90;;;;;;5055947;28;20528;-69
2022/01/31 04:08:23;;;;;;;31.70;3.90;;;4.60;99.90;;;;;;5055213;28;20043;-69
2022/01/31 04:10:49;;;;;;;20.70;2.70;;;4.70;99.90;;;;;;5038244;28;20057;-70
2022/01/31 04:13:18;;;;;;;29.42;3.90;;;4.80;99.90;;;;;;5055191;28;20044;-69
2022/01/31 04:15:44;;;;;;;24.92;3.03;;;4.90;99.90;;;;;;5054813;28;20045;-69
2022/01/31 04:18:10;;;;;;;26.05;2.63;;;5.00;99.90;;;;;;5054563;28;20056;-69
2022/01/31 04:20:37;;;;;;;29.40;3.30;;;5.00;99.90;;;;;;5056356;28;20040;-69
2022/01/31 04:23:10;;;;;;;26.48;3.45;;;5.10;99.90;;;;;;5055867;28;20051;-70
2022/01/31 04:28:25;;;;;;;24.02;3.25;;;5.10;99.90;;;;;;5055666;28;20052;-70
2022/01/31 04:31:12;;;;;;;30.50;4.45;;;5.20;99.90;;;;;;5054442;28;20045;-69
2022/01/31 04:33:38;;;;;;;26.48;1.73;;;5.20;99.90;;;;;;5038036;28;20045;-69
2022/01/31 04:36:04;;;;;;;29.33;2.90;;;5.20;99.90;;;;;;5055952;28;20045;-71
2022/01/31 04:38:30;;;;;;;27.98;3.60;;;5.20;99.90;;;;;;5037776;28;20049;-69
2022/01/31 04:40:56;;;;;;;24.70;2.30;;;5.20;99.90;;;;;;5054861;28;20055;-70
2022/01/31 04:43:22;;;;;;;37.10;4.07;;;5.20;99.90;;;;;;5021463;28;20079;-70
2022/01/31 04:45:49;;;;;;;24.23;2.78;;;5.30;99.90;;;;;;5055520;28;20404;-72
2022/01/31 04:48:16;;;;;;;28.83;2.42;;;5.20;99.90;;;;;;5054269;28;20052;-70
2022/01/31 04:50:43;;;;;;;30.52;3.08;;;5.10;99.90;;;;;;5054124;28;20110;-70
2022/01/31 04:53:09;;;;;;;23.38;1.98;;;5.20;99.90;;;;;;5037712;28;20412;-71
2022/01/31 04:55:35;;;;;;;24.05;2.17;;;5.20;99.90;;;;;;5054210;28;20064;-70
2022/01/31 04:58:01;;;;;;;26.55;1.98;;;5.10;99.90;;;;;;5055179;28;20044;-71
2022/01/31 05:00:27;;;;;;;22.42;1.98;;;5.10;99.90;;;;;;5005158;28;20489;-70
2022/01/31 05:02:54;;;;;;;30.08;2.38;;;5.10;99.90;;;;;;5053866;28;20124;-70
2022/01/31 05:05:20;;;;;;;23.73;1.85;;;5.10;99.90;;;;;;5053962;28;20052;-69
2022/01/31 05:07:45;;;;;;;24.08;1.75;;;5.10;99.90;;;;;;5037077;28;20472;-69
2022/01/31 05:10:11;;;;;;;23.10;1.25;;;5.10;99.90;;;;;;5052509;28;20124;-69
2022/01/31 05:12:37;;;;;;;23.48;1.38;;;5.00;99.90;;;;;;5020515;28;20114;-70
2022/01/31 05:15:04;;;;;;;21.50;1.77;;;4.90;99.90;;;;;;5053546;28;20041;-70
2022/01/31 05:17:30;;;;;;;19.00;1.40;;;4.90;99.90;;;;;;5054801;28;20047;-70
2022/01/31 05:19:56;;;;;;;23.50;2.80;;;4.90;99.90;;;;;;5053900;28;20397;-71
2022/01/31 05:22:21;;;;;;;24.80;2.70;;;4.90;99.90;;;;;;5054856;28;20049;-72
2022/01/31 05:24:47;;;;;;;23.83;1.90;;;4.80;99.90;;;;;;5037400;28;20491;-71
2022/01/31 05:27:14;;;;;;;16.85;1.85;;;4.80;99.90;;;;;;5053484;28;20045;-71
2022/01/31 05:29:39;;;;;;;22.65;1.98;;;4.80;99.90;;;;;;5055211;28;20049;-69
2022/01/31 05:32:06;;;;;;;22.27;1.83;;;4.80;99.90;;;;;;5020002;28;20545;-70
2022/01/31 05:34:32;;;;;;;22.95;2.22;;;4.90;99.90;;;;;;5053358;28;20049;-70
2022/01/31 05:36:57;;;;;;;29.00;1.92;;;4.90;99.90;;;;;;5054361;28;20056;-71
2022/01/31 05:39:24;;;;;;;24.75;1.88;;;5.00;99.90;;;;;;5052766;28;20362;-70
2022/01/31 05:41:51;;;;;;;22.65;2.13;;;5.00;99.90;;;;;;5053143;28;20036;-70
2022/01/31 05:44:18;;;;;;;14.10;1.08;;;4.90;99.90;;;;;;5053420;28;20065;-70
2022/01/31 05:46:43;;;;;;;20.70;1.23;;;4.70;99.90;;;;;;5053253;28;20085;-70
2022/01/31 05:49:09;;;;;;;14.15;1.23;;;4.50;99.90;;;;;;5052806;28;20353;-70
2022/01/31 05:51:48;;;;;;;17.65;1.08;;;4.60;99.90;;;;;;5036421;28;20045;-70
2022/01/31 05:54:14;;;;;;;11.52;0.80;;;4.40;99.90;;;;;;5052755;28;20454;-70
2022/01/31 05:56:40;;;;;;;13.13;0.90;;;4.40;99.90;;;;;;5053997;28;20033;-70
2022/01/31 05:59:06;;;;;;;13.80;0.55;;;4.40;99.90;;;;;;5036114;28;20130;-70
2022/01/31 06:01:31;;;;;;;11.38;0.60;;;4.30;99.90;;;;;;5052775;28;20123;-69
2022/01/31 06:03:57;;;;;;;10.45;1.25;;;4.30;99.90;;;;;;5035973;28;20107;-70
2022/01/31 06:06:23;;;;;;;17.67;0.70;;;4.30;99.90;;;;;;5053761;28;20048;-69
2022/01/31 06:08:49;;;;;;;11.90;0.70;;;4.30;99.90;;;;;;5036129;28;20048;-70
2022/01/31 06:11:15;;;;;;;18.90;0.75;;;4.30;99.90;;;;;;5056143;28;20049;-71
2022/01/31 06:13:44;;;;;;;16.05;1.00;;;4.30;99.90;;;;;;5055672;28;20051;-71
2022/01/31 06:16:10;;;;;;;6.00;0.50;;;4.30;99.90;;;;;;5055598;28;20043;-70
2022/01/31 06:18:36;;;;;;;12.57;0.95;;;4.30;99.90;;;;;;5055548;28;20044;-70
2022/01/31 06:21:03;;;;;;;14.90;1.00;;;4.40;99.90;;;;;;5038623;28;20405;-71
2022/01/31 06:23:29;;;;;;;15.45;0.70;;;4.30;99.90;;;;;;5055140;28;20082;-69
2022/01/31 06:25:55;;;;;;;28.50;1.75;;;4.40;99.90;;;;;;5073641;28;20045;-69
2022/01/31 06:28:21;;;;;;;25.48;2.45;;;4.40;99.90;;;;;;5038682;28;20103;-71
2022/01/31 06:30:47;;;;;;;14.95;0.88;;;4.40;99.90;;;;;;5055929;28;20076;-71
2022/01/31 06:33:16;;;;;;;24.90;1.95;;;4.40;99.90;;;;;;5055297;28;20093;-69
2022/01/31 06:35:43;;;;;;;21.50;0.93;;;4.50;99.90;;;;;;5054781;28;20485;-70
2022/01/31 06:38:10;;;;;;;23.85;1.15;;;4.50;99.90;;;;;;5072883;28;20056;-72
2022/01/31 06:40:35;;;;;;;23.20;2.00;;;4.60;99.90;;;;;;5054965;28;20484;-69
2022/01/31 06:43:01;;;;;;;22.92;1.98;;;4.60;99.90;;;;;;5038615;28;20056;-70
2022/01/31 06:45:27;;;;;;;20.45;1.42;;;4.60;99.90;;;;;;5038526;28;20135;-71
2022/01/31 06:47:53;;;;;;;19.08;0.98;;;4.60;99.90;;;;;;5055722;28;20375;-70
2022/01/31 06:50:18;;;;;;;17.55;1.13;;;4.60;99.90;;;;;;5039006;28;20040;-69
2022/01/31 06:52:44;;;;;;;26.02;1.92;;;4.70;99.90;;;;;;5055117;28;20075;-70
2022/01/31 06:55:19;;;;;;;17.05;1.77;;;4.80;99.90;;;;;;5054846;28;20052;-69
2022/01/31 06:57:45;;;;;;;16.05;1.67;;;4.70;99.90;;;;;;5038291;28;20083;-69
2022/01/31 07:00:12;;;;;;;21.30;1.17;;;4.70;99.90;;;;;;5054732;28;20087;-69
2022/01/31 07:02:38;;;;;;;16.80;1.15;;;4.70;99.90;;;;;;5055084;28;20121;-70
2022/01/31 07:05:05;;;;;;;10.68;0.60;;;4.70;99.90;;;;;;5072577;28;20056;-73
2022/01/31 07:07:31;;;;;;;16.13;0.75;;;4.60;99.90;;;;;;5072691;28;20044;-71
2022/01/31 07:09:57;;;;;;;7.80;0.60;;;4.70;99.90;;;;;;5071895;28;20147;-70
2022/01/31 07:12:30;;;;;;;16.67;1.63;;;4.70;99.90;;;;;;5037917;28;20128;-70
2022/01/31 07:14:56;;;;;;;14.05;0.80;;;4.60;99.90;;;;;;5072414;28;20105;-70
2022/01/31 07:17:22;;;;;;;11.13;0.60;;;4.50;99.90;;;;;;5037812;28;20041;-72
2022/01/31 07:19:48;;;;;;;14.10;0.60;;;4.50;99.90;;;;;;5038486;28;20323;-71
2022/01/31 07:22:15;;;;;;;9.88;0.70;;;4.50;99.90;;;;;;5072254;28;20543;-68
2022/01/31 07:24:51;;;;;;;19.77;0.82;;;4.40;99.90;;;;;;5054453;28;20049;-70
2022/01/31 07:27:17;;;;;;;9.70;0.90;;;4.50;99.90;;;;;;5038201;28;20110;-70
2022/01/31 07:29:45;;;;;;;20.40;0.80;;;4.50;99.90;;;;;;5054389;28;20420;-70
2022/01/31 07:32:11;;;;;;;19.83;0.60;;;4.40;99.90;;;;;;5054885;28;20470;-70
2022/01/31 07:34:40;;;;;;;14.82;1.35;;;4.40;99.90;;;;;;5071545;28;20179;-70
2022/01/31 07:37:06;;;;;;;14.18;0.90;;;4.60;99.90;;;;;;5054406;28;20495;-72
2022/01/31 07:39:32;;;;;;;15.70;1.10;;;4.50;99.90;;;;;;5054117;28;20040;-71
2022/01/31 07:41:58;;;;;;;11.95;0.70;;;4.60;99.90;;;;;;5071831;28;20046;-70
2022/01/31 07:44:24;;;;;;;11.63;1.08;;;4.70;99.90;;;;;;5037433;28;20148;-70
2022/01/31 07:46:52;;;;;;;10.52;0.70;;;4.70;99.90;;;;;;5037898;28;20075;-70
2022/01/31 07:49:18;;;;;;;22.13;2.13;;;4.60;99.90;;;;;;5054164;28;20063;-70
2022/01/31 07:51:43;;;;;;;9.27;0.70;;;4.70;99.90;;;;;;5038026;28;20132;-72
2022/01/31 07:54:09;;;;;;;11.05;0.70;;;4.70;99.90;;;;;;5071954;28;20494;-72
2022/01/31 07:56:35;;;;;;;10.43;1.00;;;4.80;99.90;;;;;;5053678;28;20044;-70
2022/01/31 07:59:01;;;;;;;14.38;1.10;;;4.70;99.90;;;;;;5072375;28;20071;-72
2022/01/31 08:01:27;;;;;;;21.95;1.23;;;4.80;99.90;;;;;;5071834;28;20449;-70
2022/01/31 08:03:53;;;;;;;18.25;1.10;;;4.90;99.90;;;;;;5054129;28;20132;-70
2022/01/31 08:06:19;;;;;;;19.67;1.42;;;4.80;99.90;;;;;;5072195;28;20048;-71
2022/01/31 08:08:44;;;;;;;16.30;1.38;;;4.80;99.90;;;;;;5072368;28;20418;-72
2022/01/31 08:11:11;;;;;;;24.02;2.05;;;4.90;99.90;;;;;;5053637;28;20401;-74
2022/01/31 08:13:38;;;;;;;19.10;1.23;;;4.90;99.90;;;;;;5037953;28;20071;-71
2022/01/31 08:18:33;;;;;;;17.65;1.30;;;5.00;99.90;;;;;;5054757;28;20313;-71
2022/01/31 08:20:59;;;;;;;22.75;2.22;;;5.20;99.90;;;;;;5071623;28;20051;-71
2022/01/31 08:23:25;;;;;;;23.50;2.05;;;5.20;99.90;;;;;;5054116;28;20044;-72
2022/01/31 08:25:52;;;;;;;21.20;1.73;;;5.10;99.90;;;;;;5037320;28;20052;-72
2022/01/31 08:28:21;;;;;;;19.88;1.00;;;5.10;99.90;;;;;;5037842;28;20052;-72
2022/01/31 08:30:58;;;;;;;24.35;1.70;;;5.10;99.90;;;;;;5072069;28;20048;-72
2022/01/31 08:33:39;;;;;;;23.70;1.55;;;5.40;99.90;;;;;;5022895;28;20070;-71
2022/01/31 08:36:07;;;;;;;19.17;1.73;;;5.30;99.90;;;;;;5053610;28;20045;-71
2022/01/31 08:38:35;;;;;;;16.73;1.10;;;5.20;99.90;;;;;;5053796;28;20136;-72
2022/01/31 08:41:02;;;;;;;12.55;0.88;;;5.30;99.90;;;;;;5071849;28;20044;-72
2022/01/31 08:43:28;;;;;;;23.45;1.33;;;5.30;99.90;;;;;;5037164;28;20049;-72
2022/01/31 08:45:56;;;;;;;11.93;0.95;;;5.30;99.90;;;;;;5056205;28;20040;-71
2022/01/31 08:48:25;;;;;;;22.38;1.30;;;5.40;99.90;;;;;;5074965;28;20102;-71
2022/01/31 08:50:52;;;;;;;18.90;0.95;;;5.30;99.90;;;;;;5057111;28;20547;-71
2022/01/31 08:53:18;;;;;;;18.95;1.50;;;5.40;99.90;;;;;;5056679;28;20150;-72
2022/01/31 08:55:57;;;;;;;23.57;2.40;;;5.60;99.90;;;;;;5057286;28;20088;-70
2022/01/31 08:58:23;;;;;;;26.08;1.80;;;5.50;99.90;;;;;;5075522;28;20080;-71
2022/01/31 09:00:57;;;;;;;26.23;1.77;;;5.50;99.90;;;;;;5040591;28;20146;-71
2022/01/31 09:03:41;;;;;;;21.70;1.67;;;5.60;99.90;;;;;;5057478;28;20473;-71
2022/01/31 09:06:09;;;;;;;21.75;1.33;;;5.60;99.90;;;;;;5075764;28;20044;-71
2022/01/31 09:08:36;;;;;;;18.63;1.40;;;5.60;99.90;;;;;;5040900;28;20047;-71
2022/01/31 09:11:03;;;;;;;18.63;1.25;;;5.60;99.90;;;;;;5056973;28;20064;-71
2022/01/31 09:13:29;;;;;;;17.90;1.30;;;5.80;99.90;;;;;;5056580;28;20476;-72
2022/01/31 09:15:55;;;;;;;15.63;0.90;;;5.70;99.90;;;;;;5040540;28;20040;-72
2022/01/31 09:18:21;;;;;;;21.33;1.98;;;5.80;99.90;;;;;;5075123;28;20052;-71
2022/01/31 09:20:47;;;;;;;13.82;1.50;;;5.80;99.90;;;;;;5056730;28;20512;-70
2022/01/31 09:23:12;;;;;;;23.92;1.60;;;5.90;99.90;;;;;;5057047;28;20572;-72
2022/01/31 09:25:44;;;;;;;16.20;1.10;;;5.90;99.90;;;;;;5074753;28;20071;-71
2022/01/31 09:28:10;;;;;;;19.77;1.60;;;5.90;99.90;;;;;;5074655;28;20055;-70
2022/01/31 09:30:37;;;;;;;18.17;1.33;;;5.80;99.90;;;;;;5057247;28;20041;-70
2022/01/31 09:33:03;;;;;;;13.32;1.10;;;5.90;99.90;;;;;;5074168;28;20489;-71
2022/01/31 09:35:29;;;;;;;13.13;0.98;;;5.90;99.90;;;;;;5074509;28;20149;-71
2022/01/31 09:37:55;;;;;;;18.20;1.20;;;5.90;99.90;;;;;;5056515;28;20055;-70
2022/01/31 09:40:23;;;;;;;10.38;1.13;;;5.90;99.90;;;;;;5056298;28;20457;-70
2022/01/31 09:43:05;;;;;;;16.10;1.80;;;6.00;99.90;;;;;;5074281;28;20055;-71
2022/01/31 09:51:01;;;;;;;13.45;0.68;;;6.10;99.90;;;;;;5056319;28;20052;-71
2022/01/31 09:53:29;;;;;;;16.67;0.98;;;6.20;99.90;;;;;;5039704;28;20127;-71
2022/01/31 09:55:55;;;;;;;15.35;1.23;;;6.20;99.90;;;;;;5055764;28;20123;-72
2022/01/31 09:58:24;;;;;;;9.68;0.80;;;6.10;99.90;;;;;;5039190;28;20461;-71
2022/01/31 10:01:01;;;;;;;12.15;0.98;;;6.20;99.90;;;;;;5074535;28;20048;-72
2022/01/31 10:03:27;;;;;;;12.98;0.80;;;6.30;99.90;;;;;;5073748;28;20055;-73
2022/01/31 10:05:52;;;;;;;11.27;1.05;;;6.40;99.90;;;;;;5055866;28;20044;-72
2022/01/31 10:08:18;;;;;;;11.85;0.80;;;6.50;99.90;;;;;;5055852;28;20055;-74
2022/01/31 10:10:47;;;;;;;9.68;0.70;;;6.30;99.90;;;;;;5073366;28;20064;-72
2022/01/31 10:16:32;;;;;;;5.60;0.50;;;6.20;99.90;;;;;;5055540;28;20048;-72
2022/01/31 10:19:06;;;;;;;10.75;0.57;;;6.20;99.90;;;;;;5073697;28;20058;-72
2022/01/31 10:21:51;;;;;;;15.75;0.80;;;6.30;99.90;;;;;;5056070;28;20473;-72
2022/01/31 10:24:18;;;;;;;14.88;0.63;;;6.50;99.90;;;;;;5055357;28;20056;-72
2022/01/31 10:26:43;;;;;;;17.15;0.77;;;6.40;99.90;;;;;;5073982;28;20036;-72
2022/01/31 10:29:12;;;;;;;7.55;0.45;;;6.00;99.90;;;;;;5039007;28;20048;-72
2022/01/31 10:31:52;;;;;;;7.63;0.63;;;6.00;99.90;;;;;;5039196;28;20052;-72
2022/01/31 10:34:20;;;;;;;10.15;0.88;;;6.10;99.90;;;;;;5055308;28;20052;-72
2022/01/31 10:36:46;;;;;;;9.23;0.63;;;6.10;99.90;;;;;;5055026;28;20083;-71
2022/01/31 10:39:15;;;;;;;15.20;0.80;;;6.30;99.90;;;;;;5073118;28;20045;-71
2022/01/31 10:53:08;;;;;;;10.27;0.70;;;6.90;99.90;;;;;;5072975;28;20053;-75
2022/01/31 10:55:34;;;;;;;13.77;1.08;;;5.90;99.90;;;;;;5022178;28;20059;-73
2022/01/31 10:58:05;;;;;;;13.02;0.55;;;6.60;99.90;;;;;;5054858;28;20040;-72
2022/01/31 11:00:39;;;;;;;7.78;0.40;;;6.60;99.90;;;;;;5072719;28;20136;-72
2022/01/31 11:03:31;;;;;;;7.20;0.55;;;6.70;99.90;;;;;;5073255;28;20045;-72
2022/01/31 11:06:00;;;;;;;7.78;0.80;;;;;;;;;;5055089;28;20492;-75
2022/01/31 11:08:27;;;;;;;7.25;0.68;;;6.90;99.90;;;;;;5054872;28;20405;-74
2022/01/31 11:11:00;;;;;;;15.65;0.50;;;6.80;99.90;;;;;;5054210;28;20568;-73
2022/01/31 11:13:26;;;;;;;11.40;0.80;;;6.90;99.90;;;;;;5054696;28;20053;-72
2022/01/31 11:15:55;;;;;;;19.85;1.25;;;7.00;99.90;;;;;;5072540;28;20071;-74
2022/01/31 11:18:23;;;;;;;14.13;1.20;;;6.80;99.90;;;;;;5073121;28;20448;-73
2022/01/31 11:20:56;;;;;;;8.57;0.68;;;7.00;99.90;;;;;;5054710;28;20211;-73
2022/01/31 11:23:27;;;;;;;11.48;0.90;;;7.00;99.90;;;;;;5054803;28;20052;-72
2022/01/31 11:25:56;;;;;;;14.43;1.40;;;7.10;99.90;;;;;;5072940;28;20050;-72
2022/01/31 11:28:25;;;;;;;24.38;1.67;;;7.00;99.90;;;;;;5054600;28;20044;-72
2022/01/31 11:30:51;;;;;;;17.50;0.90;;;6.90;99.90;;;;;;5038738;28;20423;-72
2022/01/31 11:33:19;;;;;;;14.18;1.52;;;6.80;99.90;;;;;;5054389;28;20048;-72
2022/01/31 11:35:46;;;;;;;19.75;2.05;;;6.80;99.90;;;;;;5072021;28;20481;-72
2022/01/31 11:38:11;;;;;;;19.02;1.80;;;7.20;99.90;;;;;;5054090;28;20086;-73
2022/01/31 11:40:38;;;;;;;19.05;1.83;;;6.90;99.90;;;;;;5021294;28;20147;-73
2022/01/31 11:43:04;;;;;;;26.63;1.75;;;7.00;99.90;;;;;;5054169;28;20056;-73
2022/01/31 11:45:36;;;;;;;24.70;2.38;;;7.10;99.90;;;;;;5054510;28;20397;-74
2022/01/31 11:48:11;;;;;;;15.25;0.90;;;7.10;99.90;;;;;;5071833;28;20040;-73
2022/01/31 11:50:49;;;;;;;14.25;1.60;;;7.20;99.90;;;;;;5054863;28;20343;-73
2022/01/31 11:53:15;;;;;;;13.77;1.30;;;7.30;99.90;;;;;;5054203;28;20064;-73
2022/01/31 11:55:42;;;;;;;9.98;0.75;;;7.00;99.90;;;;;;5054054;28;20457;-73
2022/01/31 11:58:17;;;;;;;12.77;1.10;;;6.90;99.90;;;;;;5038647;28;20052;-72
2022/01/31 12:00:46;;;;;;;11.68;0.75;;;6.90;99.90;;;;;;5054047;28;20053;-73
2022/01/31 12:03:17;;;;;;;10.55;0.70;;;7.00;99.90;;;;;;5053763;28;20500;-71
2022/01/31 12:05:44;;;;;;;9.45;0.40;;;7.10;99.90;;;;;;5072430;28;20051;-73
2022/01/31 12:08:15;;;;;;;13.15;0.50;;;7.20;99.90;;;;;;5020705;28;20055;-72
2022/01/31 12:10:47;;;;;;;9.27;0.47;;;7.30;99.90;;;;;;5071832;28;20053;-73
2022/01/31 12:13:46;;;;;;;7.47;0.30;;;7.40;99.90;;;;;;5072647;28;20119;-72
2022/01/31 12:16:45;;;;;;;9.95;0.40;;;7.40;99.90;;;;;;5054313;28;20049;-73
2022/01/31 12:22:29;;;;;;;7.53;0.60;;;7.40;99.90;;;;;;5058422;28;20053;-73
2022/01/31 12:24:54;;;;;;;4.55;0.20;;;7.50;99.90;;;;;;5058431;28;20049;-73
2022/01/31 12:27:28;;;;;;;4.55;0.30;;;7.60;99.90;;;;;;5075692;28;20496;-73
2022/01/31 12:30:00;;;;;;;4.07;0.25;;;7.60;99.90;;;;;;5057361;28;20512;-72
2022/01/31 12:32:35;;;;;;;5.60;0.30;;;7.60;99.90;;;;;;5076264;28;20056;-72
2022/01/31 12:35:03;;;;;;;9.32;0.50;;;7.60;99.90;;;;;;5057839;28;20040;-71
2022/01/31 12:37:39;;;;;;;8.25;0.65;;;7.70;99.90;;;;;;5040891;28;20051;-74
2022/01/31 12:40:15;;;;;;;7.60;0.60;;;7.70;99.90;;;;;;5058200;28;20049;-74
2022/01/31 12:42:57;;;;;;;11.55;0.52;;;7.70;99.90;;;;;;5041383;28;20060;-74
2022/01/31 12:45:26;;;;;;;6.90;0.60;;;7.80;99.90;;;;;;5041886;28;20445;-73
2022/01/31 12:48:25;;;;;;;10.55;0.60;;;8.00;99.90;;;;;;5057580;28;20072;-73
2022/01/31 12:50:50;;;;;;;13.68;1.10;;;7.90;99.90;;;;;;5041619;28;20431;-75
2022/01/31 12:53:46;;;;;;;12.85;0.80;;;7.80;99.90;;;;;;5075846;28;20040;-74
2022/01/31 12:56:14;;;;;;;7.30;0.60;;;7.90;99.90;;;;;;5040961;28;20041;-74
2022/01/31 12:58:39;;;;;;;9.52;0.73;;;7.80;99.90;;;;;;5057447;28;20048;-75
2022/01/31 13:01:20;;;;;;;8.80;0.77;;;7.90;99.90;;;;;;5041395;28;20047;-75
2022/01/31 13:03:50;;;;;;;14.57;1.20;;;7.50;99.90;;;;;;5040588;28;20045;-73
2022/01/31 13:06:33;;;;;;;12.13;0.63;;;7.50;99.90;;;;;;5057310;28;20056;-74
2022/01/31 13:09:24;;;;;;;8.90;0.60;;;7.50;99.90;;;;;;5040995;28;20052;-72
2022/01/31 13:11:55;;;;;;;8.95;0.47;;;7.50;99.90;;;;;;5075370;28;20102;-74
2022/01/31 13:14:27;;;;;;;9.75;0.77;;;7.60;99.90;;;;;;5057734;28;20044;-72
2022/01/31 13:17:04;;;;;;;14.05;1.35;;;7.50;99.90;;;;;;5056669;28;20049;-73
2022/01/31 13:19:33;;;;;;;6.55;0.70;;;7.50;99.90;;;;;;5056960;28;20197;-73
2022/01/31 13:22:02;;;;;;;10.00;1.00;;;7.10;99.90;;;;;;5057767;28;20400;-73